Time;durP1;ratioP1;P1;durP2;ratioP2;P2;SDS_P1;SDS_P2;PMS_P1;PMS_P2;Temp;Humidity;BMP_temperature;BMP_pressure;BME280_temperature;BME280_humidity;BME280_pressure;Samples;Min_cycle;Max_cycle;Signal;HPM_P1;HPM_P2
2022/05/06 00:00:04;;;;;;;3.63;2.00;;;13.20;98.00;;;;;;5012253;28;20518;-67
2022/05/06 00:02:32;;;;;;;5.07;3.63;;;13.20;98.00;;;;;;5011124;28;20899;-67
2022/05/06 00:04:59;;;;;;;2.40;1.97;;;13.10;98.00;;;;;;5012990;28;20488;-67
2022/05/06 00:07:27;;;;;;;2.10;2.00;;;13.10;98.00;;;;;;5016084;28;20855;-67
2022/05/06 00:09:55;;;;;;;2.37;2.23;;;13.00;98.00;;;;;;5016247;28;20825;-67
2022/05/06 00:12:22;;;;;;;3.40;2.30;;;13.10;98.00;;;;;;5014874;28;20484;-67
2022/05/06 00:14:49;;;;;;;2.90;1.73;;;13.00;98.00;;;;;;5016281;28;20460;-67
2022/05/06 00:17:16;;;;;;;2.90;2.23;;;13.00;98.00;;;;;;5016181;28;20452;-67
2022/05/06 00:19:46;;;;;;;2.60;2.30;;;13.00;98.00;;;;;;5016075;28;20463;-67
2022/05/06 00:22:13;;;;;;;2.57;1.90;;;13.00;98.00;;;;;;5015919;28;20472;-67
2022/05/06 00:24:40;;;;;;;2.53;2.10;;;13.00;98.00;;;;;;5015978;28;20491;-67
2022/05/06 00:27:08;;;;;;;2.90;2.20;;;13.00;98.00;;;;;;5015561;28;20455;-67
2022/05/06 00:29:35;;;;;;;3.03;2.10;;;13.00;98.00;;;;;;5015570;28;20468;-68
2022/05/06 00:32:02;;;;;;;3.63;2.43;;;12.90;98.00;;;;;;5014223;28;20461;-67
2022/05/06 00:34:29;;;;;;;5.07;2.87;;;12.90;98.00;;;;;;5015363;28;20518;-67
2022/05/06 00:36:58;;;;;;;5.20;3.00;;;12.90;98.00;;;;;;5015382;28;20461;-68
2022/05/06 00:39:25;;;;;;;2.33;2.17;;;12.90;98.00;;;;;;5015289;28;20464;-67
2022/05/06 00:41:54;;;;;;;2.70;2.03;;;13.00;98.00;;;;;;5015444;28;20974;-67
2022/05/06 00:44:22;;;;;;;3.67;2.47;;;12.90;98.00;;;;;;5015236;28;20542;-67
2022/05/06 00:46:52;;;;;;;4.17;2.47;;;12.90;98.00;;;;;;5015351;28;20854;-67
2022/05/06 00:49:22;;;;;;;3.80;2.70;;;12.80;98.00;;;;;;5015154;28;20491;-67
2022/05/06 00:51:51;;;;;;;2.20;2.00;;;12.80;98.00;;;;;;5013859;28;20555;-67
2022/05/06 00:54:22;;;;;;;4.27;3.20;;;12.70;98.00;;;;;;5015064;28;20455;-67
2022/05/06 00:56:51;;;;;;;2.00;1.33;;;12.60;98.00;;;;;;5013870;28;20509;-67
2022/05/06 00:59:18;;;;;;;2.70;2.20;;;12.60;98.00;;;;;;5014991;28;20509;-67
2022/05/06 01:01:45;;;;;;;2.87;2.43;;;12.60;98.00;;;;;;5015069;28;20460;-67
2022/05/06 01:04:14;;;;;;;2.70;2.07;;;12.50;98.00;;;;;;5014851;28;20746;-67
2022/05/06 01:06:41;;;;;;;4.63;2.60;;;12.50;98.00;;;;;;5015177;28;20887;-67
2022/05/06 01:09:08;;;;;;;4.70;2.90;;;12.50;98.00;;;;;;5014907;28;20462;-67
2022/05/06 01:11:36;;;;;;;2.93;1.90;;;12.60;98.00;;;;;;5015052;28;20466;-67
2022/05/06 01:14:03;;;;;;;5.27;2.83;;;12.50;98.00;;;;;;5015071;28;20471;-67
2022/05/06 01:16:33;;;;;;;2.50;1.77;;;12.60;98.00;;;;;;5014323;28;20512;-67
2022/05/06 01:19:00;;;;;;;4.13;2.70;;;12.50;98.00;;;;;;5014926;28;20569;-67
2022/05/06 01:21:29;;;;;;;2.00;1.63;;;12.40;98.00;;;;;;5015173;28;20457;-67
2022/05/06 01:23:57;;;;;;;2.47;2.27;;;12.40;98.00;;;;;;5014682;28;20867;-67
2022/05/06 01:26:54;;;;;;;2.33;2.20;;;12.40;98.00;;;;;;5013513;28;20801;-67
2022/05/06 01:29:23;;;;;;;2.17;1.93;;;12.40;98.00;;;;;;5013403;28;20476;-67
2022/05/06 01:31:52;;;;;;;2.57;2.30;;;12.40;98.00;;;;;;5014436;28;20476;-67
2022/05/06 01:34:19;;;;;;;3.90;2.60;;;12.50;98.00;;;;;;5013098;28;20482;-67
2022/05/06 01:36:50;;;;;;;1.50;1.50;;;12.50;98.00;;;;;;5014404;28;20454;-67
2022/05/06 01:39:24;;;;;;;3.20;2.47;;;12.40;98.00;;;;;;5014128;28;20825;-67
2022/05/06 01:41:55;;;;;;;4.43;2.53;;;12.40;98.00;;;;;;5014363;28;20462;-67
2022/05/06 01:44:27;;;;;;;2.00;1.90;;;12.30;98.00;;;;;;5014136;28;20494;-67
2022/05/06 01:46:58;;;;;;;4.63;2.70;;;12.40;98.00;;;;;;5014052;28;20459;-67
2022/05/06 01:49:30;;;;;;;2.60;1.73;;;12.50;98.00;;;;;;5013957;28;20467;-67
2022/05/06 01:51:58;;;;;;;2.63;2.17;;;12.40;98.00;;;;;;5012850;28;20464;-66
2022/05/06 01:54:27;;;;;;;3.50;2.40;;;12.40;98.00;;;;;;5013943;28;20468;-66
2022/05/06 01:56:54;;;;;;;4.90;2.30;;;12.50;98.00;;;;;;5014166;28;20853;-66
2022/05/06 01:59:21;;;;;;;3.37;2.53;;;12.50;98.00;;;;;;5012622;28;20459;-66
2022/05/06 02:01:48;;;;;;;4.70;2.80;;;12.50;98.00;;;;;;5013802;28;20526;-66
2022/05/06 02:07:00;;;;;;;3.10;2.20;;;12.50;98.00;;;;;;5014019;28;20443;-66
2022/05/06 02:09:28;;;;;;;7.87;2.00;;;12.40;98.00;;;;;;5012315;28;20997;-66
2022/05/06 02:11:55;;;;;;;2.77;1.80;;;12.40;98.00;;;;;;5013776;28;20911;-66
2022/05/06 02:14:22;;;;;;;3.10;2.73;;;12.50;98.00;;;;;;5013781;28;20450;-66
2022/05/06 02:16:50;;;;;;;3.83;2.10;;;12.60;98.00;;;;;;5013652;28;20458;-66
2022/05/06 02:19:18;;;;;;;4.93;2.67;;;12.60;98.00;;;;;;5013640;28;20479;-66
2022/05/06 02:21:45;;;;;;;3.30;2.43;;;12.70;98.00;;;;;;5013808;28;20468;-66
2022/05/06 02:24:15;;;;;;;2.73;2.30;;;12.80;98.00;;;;;;5013426;28;20461;-66
2022/05/06 02:26:44;;;;;;;3.17;2.67;;;12.70;98.00;;;;;;5013390;28;20460;-66
2022/05/06 02:29:13;;;;;;;1.83;1.60;;;12.70;98.00;;;;;;5012286;28;20451;-66
2022/05/06 02:34:24;;;;;;;2.50;2.03;;;12.60;98.00;;;;;;5013088;28;21046;-66
2022/05/06 02:36:51;;;;;;;4.50;3.93;;;12.60;98.00;;;;;;5013429;28;20879;-66
2022/05/06 02:39:18;;;;;;;2.50;2.10;;;12.50;98.00;;;;;;5012991;28;20468;-66
2022/05/06 02:41:46;;;;;;;2.60;2.50;;;12.50;98.00;;;;;;5013216;28;20464;-66
2022/05/06 02:44:14;;;;;;;3.23;2.37;;;12.70;98.00;;;;;;5013001;28;20820;-66
2022/05/06 02:46:41;;;;;;;2.53;2.03;;;12.70;98.00;;;;;;5011787;28;20499;-66
2022/05/06 02:49:08;;;;;;;2.80;1.97;;;12.80;98.00;;;;;;5012839;28;20452;-66
2022/05/06 02:51:36;;;;;;;2.27;2.10;;;12.80;98.00;;;;;;5012990;28;20469;-67
2022/05/06 02:54:06;;;;;;;2.50;2.30;;;12.80;98.00;;;;;;5013202;28;20953;-67
2022/05/06 02:56:33;;;;;;;3.90;2.40;;;12.80;98.00;;;;;;5012795;28;20461;-67
2022/05/06 02:59:02;;;;;;;4.00;3.13;;;12.70;98.00;;;;;;5012865;28;20511;-67
2022/05/06 03:01:29;;;;;;;4.80;2.50;;;12.60;98.00;;;;;;5012716;28;20475;-67
2022/05/06 03:03:56;;;;;;;3.50;2.10;;;12.60;98.00;;;;;;5012780;28;20816;-66
2022/05/06 03:06:23;;;;;;;2.70;2.27;;;12.50;98.00;;;;;;5012690;28;20975;-67
2022/05/06 03:08:51;;;;;;;3.10;2.60;;;12.50;98.00;;;;;;5012842;28;20505;-67
2022/05/06 03:11:19;;;;;;;6.60;2.23;;;12.50;98.00;;;;;;5012695;28;20826;-67
2022/05/06 03:13:46;;;;;;;3.13;2.93;;;12.50;98.00;;;;;;5011445;28;20528;-67
2022/05/06 03:16:15;;;;;;;2.53;2.13;;;12.50;98.00;;;;;;5011823;28;20814;-67
2022/05/06 03:18:42;;;;;;;2.97;2.10;;;12.60;98.00;;;;;;5012633;28;20457;-67
2022/05/06 03:21:09;;;;;;;5.13;2.20;;;12.60;98.00;;;;;;5012888;28;20447;-67
2022/05/06 03:23:36;;;;;;;2.23;1.87;;;12.60;98.00;;;;;;5012664;28;20465;-67
2022/05/06 03:26:03;;;;;;;3.10;2.33;;;12.50;98.00;;;;;;5012576;28;20565;-67
2022/05/06 03:28:31;;;;;;;6.10;2.43;;;12.50;98.00;;;;;;5012316;28;20467;-67
2022/05/06 03:30:59;;;;;;;2.77;2.20;;;12.50;98.00;;;;;;5011981;28;20455;-67
2022/05/06 03:33:32;;;;;;;3.30;2.40;;;12.50;98.00;;;;;;5012361;28;20466;-67
2022/05/06 03:35:59;;;;;;;5.60;1.83;;;12.50;98.00;;;;;;5011182;28;20468;-67
2022/05/06 03:38:26;;;;;;;2.57;2.37;;;12.50;98.00;;;;;;5012264;28;20469;-67
2022/05/06 03:40:53;;;;;;;2.10;1.70;;;12.60;98.00;;;;;;5011905;28;20464;-67
2022/05/06 03:43:20;;;;;;;3.60;2.43;;;12.60;98.00;;;;;;5012234;28;20529;-67
2022/05/06 03:45:47;;;;;;;2.83;2.50;;;12.60;98.00;;;;;;5012097;28;20488;-67
2022/05/06 03:48:14;;;;;;;2.77;2.40;;;12.60;98.00;;;;;;5012051;28;20461;-67
2022/05/06 03:53:27;;;;;;;3.70;2.50;;;12.60;98.00;;;;;;5012333;28;20920;-67
2022/05/06 03:55:54;;;;;;;4.57;2.30;;;12.50;98.00;;;;;;5012131;28;20492;-67
2022/05/06 03:58:21;;;;;;;3.60;2.17;;;12.50;98.00;;;;;;5012102;28;20964;-68
2022/05/06 04:00:48;;;;;;;2.43;1.90;;;12.50;98.00;;;;;;5012092;28;20470;-68
2022/05/06 04:03:18;;;;;;;2.73;2.40;;;12.50;98.00;;;;;;5012058;28;20452;-67
2022/05/06 04:05:46;;;;;;;3.17;2.10;;;12.50;98.00;;;;;;5010855;28;20495;-67
2022/05/06 04:08:14;;;;;;;3.47;2.20;;;12.50;98.00;;;;;;5012049;28;20533;-67
2022/05/06 04:10:41;;;;;;;2.57;2.37;;;12.50;98.00;;;;;;5012047;28;20514;-67
2022/05/06 04:13:10;;;;;;;3.90;2.83;;;12.50;98.00;;;;;;5011808;28;20456;-67
2022/05/06 04:15:38;;;;;;;2.67;2.27;;;12.40;98.00;;;;;;5012132;28;20949;-67
2022/05/06 04:18:06;;;;;;;4.23;2.80;;;12.40;98.00;;;;;;5011962;28;20462;-68
2022/05/06 04:23:31;;;;;;;3.03;2.30;;;12.30;98.00;;;;;;5011401;28;20454;-68
2022/05/06 04:25:59;;;;;;;2.13;2.00;;;12.30;98.00;;;;;;5012020;28;20492;-67
2022/05/06 04:28:27;;;;;;;2.63;2.43;;;12.40;98.00;;;;;;5011794;28;20883;-68
2022/05/06 04:30:54;;;;;;;6.00;2.50;;;12.50;98.00;;;;;;5010425;28;20952;-68
2022/05/06 04:33:22;;;;;;;4.10;2.57;;;12.40;98.00;;;;;;5011748;28;20466;-67
2022/05/06 04:35:52;;;;;;;2.77;2.27;;;12.40;98.00;;;;;;5011954;28;20498;-67
2022/05/06 04:38:22;;;;;;;3.93;2.47;;;12.40;98.00;;;;;;5011624;28;20588;-68
2022/05/06 04:40:51;;;;;;;2.17;1.70;;;12.50;98.00;;;;;;5011651;28;20548;-67
2022/05/06 04:43:20;;;;;;;2.87;2.40;;;12.60;98.00;;;;;;5011732;28;20456;-67
2022/05/06 04:45:48;;;;;;;2.43;2.00;;;12.60;98.00;;;;;;5011289;28;20525;-67
2022/05/06 04:48:16;;;;;;;2.37;2.00;;;12.60;98.00;;;;;;5011905;28;20459;-68
2022/05/06 04:50:44;;;;;;;3.07;2.87;;;12.70;98.00;;;;;;5011747;28;21155;-67
2022/05/06 04:53:12;;;;;;;4.10;2.57;;;12.70;98.00;;;;;;5014269;28;20559;-67
2022/05/06 04:55:43;;;;;;;4.00;2.97;;;12.80;98.00;;;;;;5014950;28;20462;-67
2022/05/06 04:58:12;;;;;;;3.60;2.40;;;12.90;98.00;;;;;;5014847;28;20459;-67
2022/05/06 05:00:39;;;;;;;3.40;2.50;;;12.90;98.00;;;;;;5015169;28;20880;-68
2022/05/06 05:03:06;;;;;;;1.90;1.90;;;13.10;98.00;;;;;;5015074;28;20468;-67
2022/05/06 05:05:33;;;;;;;3.13;2.30;;;13.10;98.00;;;;;;5014820;28;20492;-67
2022/05/06 05:08:00;;;;;;;2.57;1.93;;;13.10;98.00;;;;;;5014926;28;20464;-67
2022/05/06 05:10:31;;;;;;;4.23;2.30;;;13.10;98.00;;;;;;5014493;28;20510;-67
2022/05/06 05:12:59;;;;;;;1.97;1.90;;;13.10;98.00;;;;;;5014217;28;20454;-67
2022/05/06 05:15:27;;;;;;;3.77;2.83;;;13.10;98.00;;;;;;5014746;28;20457;-67
2022/05/06 05:17:54;;;;;;;2.60;2.43;;;13.20;98.00;;;;;;5014822;28;20467;-67
2022/05/06 05:20:21;;;;;;;3.00;2.03;;;13.30;98.00;;;;;;5013602;28;21026;-67
2022/05/06 05:22:48;;;;;;;2.00;1.90;;;13.20;98.00;;;;;;5014880;28;20533;-67
2022/05/06 05:25:15;;;;;;;2.50;2.30;;;13.10;98.00;;;;;;5014528;28;20460;-67
2022/05/06 05:27:44;;;;;;;3.30;2.70;;;13.10;98.00;;;;;;5015030;28;20456;-67
2022/05/06 05:30:13;;;;;;;3.40;2.80;;;13.10;98.00;;;;;;4997255;28;20806;-67
2022/05/06 05:32:44;;;;;;;2.53;1.90;;;13.10;98.00;;;;;;5014505;28;20955;-67
2022/05/06 05:35:11;;;;;;;2.53;2.20;;;13.20;98.00;;;;;;5014227;28;20467;-67
2022/05/06 05:37:38;;;;;;;5.10;2.77;;;13.20;98.00;;;;;;5014457;28;20461;-67
2022/05/06 05:40:06;;;;;;;5.00;2.70;;;13.20;98.00;;;;;;5014215;28;20470;-67
2022/05/06 05:42:33;;;;;;;5.20;2.43;;;13.20;98.00;;;;;;5014151;28;20926;-67
2022/05/06 05:50:30;;;;;;;2.70;2.43;;;13.50;98.00;;;;;;5013699;28;20437;-67
2022/05/06 05:52:58;;;;;;;2.47;2.23;;;13.50;98.00;;;;;;5011731;28;20511;-67
2022/05/06 05:55:25;;;;;;;2.97;2.30;;;13.40;98.00;;;;;;5012697;28;20462;-67
2022/05/06 05:57:52;;;;;;;3.43;2.73;;;13.30;98.00;;;;;;5013147;28;20471;-68
2022/05/06 06:00:19;;;;;;;4.33;2.60;;;13.40;98.00;;;;;;5013431;28;20464;-68
2022/05/06 06:02:48;;;;;;;2.10;1.63;;;13.50;98.00;;;;;;5013218;28;20471;-67
2022/05/06 06:05:16;;;;;;;3.73;3.17;;;13.50;98.00;;;;;;5012963;28;20509;-67
2022/05/06 06:07:43;;;;;;;4.40;2.30;;;13.40;98.00;;;;;;5013425;28;20510;-67
2022/05/06 06:10:11;;;;;;;3.10;2.30;;;13.40;98.00;;;;;;5012963;28;20467;-67
2022/05/06 06:12:39;;;;;;;3.43;2.83;;;13.50;98.00;;;;;;5009917;28;20468;-67
2022/05/06 06:15:07;;;;;;;4.23;2.40;;;13.60;98.00;;;;;;5011643;28;20571;-67
2022/05/06 06:17:34;;;;;;;3.93;2.03;;;13.60;98.00;;;;;;5009165;28;20976;-68
2022/05/06 06:20:05;;;;;;;2.50;1.87;;;13.80;98.00;;;;;;5010302;28;20462;-68
2022/05/06 06:22:32;;;;;;;2.00;1.60;;;13.90;98.00;;;;;;5009788;28;20467;-67
2022/05/06 06:25:00;;;;;;;4.13;2.13;;;13.90;98.00;;;;;;5007605;28;20798;-68
2022/05/06 06:27:28;;;;;;;3.40;2.13;;;13.80;98.00;;;;;;5011112;28;20548;-68
2022/05/06 06:29:55;;;;;;;2.40;2.03;;;13.70;98.00;;;;;;5010398;28;20460;-67
2022/05/06 06:32:23;;;;;;;1.93;1.87;;;13.90;98.00;;;;;;5009403;28;20530;-67
2022/05/06 06:34:51;;;;;;;2.30;2.10;;;13.90;98.00;;;;;;5009881;28;20471;-67
2022/05/06 06:37:21;;;;;;;5.30;3.30;;;13.70;98.00;;;;;;5001020;28;20946;-67
2022/05/06 06:39:48;;;;;;;3.10;2.93;;;13.60;98.00;;;;;;5008942;28;20506;-66
2022/05/06 06:42:15;;;;;;;2.77;2.10;;;13.60;98.00;;;;;;5002183;28;20532;-67
2022/05/06 06:44:42;;;;;;;2.47;2.20;;;13.60;98.00;;;;;;5010150;28;20457;-66
2022/05/06 06:47:09;;;;;;;2.57;2.10;;;13.50;98.00;;;;;;5008709;28;20487;-68
2022/05/06 06:49:37;;;;;;;2.70;1.93;;;13.50;98.00;;;;;;5008141;28;20468;-68
2022/05/06 06:52:04;;;;;;;2.17;2.00;;;13.40;98.00;;;;;;5009292;28;20555;-68
2022/05/06 06:54:34;;;;;;;2.10;1.97;;;13.40;98.00;;;;;;5008002;28;20463;-67
2022/05/06 06:57:01;;;;;;;3.57;2.53;;;13.30;98.00;;;;;;5009150;28;20471;-68
2022/05/06 06:59:29;;;;;;;4.47;2.93;;;13.40;98.00;;;;;;5008599;28;20578;-67
2022/05/06 07:01:56;;;;;;;4.23;2.33;;;13.40;98.00;;;;;;5009496;28;20473;-67
2022/05/06 07:04:23;;;;;;;1.90;1.80;;;13.40;98.00;;;;;;5009650;28;20452;-67
2022/05/06 07:12:21;;;;;;;1.80;1.70;;;13.40;98.00;;;;;;5009914;28;20834;-66
2022/05/06 07:14:48;;;;;;;3.63;2.67;;;13.50;98.00;;;;;;5007665;28;20499;-67
2022/05/06 07:17:15;;;;;;;3.70;2.20;;;13.50;98.00;;;;;;5006950;28;20467;-65
2022/05/06 07:19:43;;;;;;;2.63;1.70;;;13.40;98.00;;;;;;5009520;28;20469;-66
2022/05/06 07:22:10;;;;;;;2.17;2.00;;;13.50;98.00;;;;;;5009313;28;20474;-67
2022/05/06 07:24:39;;;;;;;3.23;2.37;;;13.70;98.00;;;;;;5009265;28;20460;-67
2022/05/06 07:27:07;;;;;;;3.87;2.50;;;13.60;98.00;;;;;;5007819;28;20916;-67
2022/05/06 07:29:34;;;;;;;3.20;2.20;;;13.50;98.00;;;;;;5009325;28;20490;-67
2022/05/06 07:32:01;;;;;;;2.90;2.33;;;13.60;98.00;;;;;;5007916;28;21063;-67
2022/05/06 07:34:28;;;;;;;2.57;2.37;;;13.50;98.00;;;;;;5008112;28;20450;-67
2022/05/06 07:36:58;;;;;;;2.43;2.30;;;13.60;98.00;;;;;;5009537;28;21146;-66
2022/05/06 07:39:25;;;;;;;4.80;2.43;;;13.70;98.00;;;;;;5009150;28;20465;-67
2022/05/06 07:42:10;;;;;;;1.70;1.60;;;13.60;98.00;;;;;;5007710;28;20513;-67
2022/05/06 07:44:38;;;;;;;2.07;1.90;;;13.70;98.00;;;;;;5008888;28;20469;-67
2022/05/06 07:47:05;;;;;;;2.43;2.10;;;13.70;98.00;;;;;;5008983;28;20627;-67
2022/05/06 07:49:32;;;;;;;2.77;2.50;;;13.70;98.00;;;;;;5007336;28;20849;-68
2022/05/06 07:51:59;;;;;;;2.57;2.17;;;13.90;98.00;;;;;;5009178;28;20819;-67
2022/05/06 07:54:26;;;;;;;3.03;1.70;;;13.90;98.00;;;;;;5009447;28;20517;-63
2022/05/06 07:56:55;;;;;;;3.10;1.80;;;14.00;98.00;;;;;;5009078;28;20789;-65
2022/05/06 07:59:22;;;;;;;1.97;1.87;;;14.40;98.00;;;;;;5008828;28;20469;-67
2022/05/06 08:04:34;;;;;;;3.47;2.70;;;15.10;98.00;;;;;;5008914;28;20521;-65
2022/05/06 08:07:01;;;;;;;5.63;2.43;;;15.40;98.00;;;;;;5008908;28;20496;-67
2022/05/06 08:09:28;;;;;;;2.73;2.00;;;15.40;98.00;;;;;;5008694;28;20466;-65
2022/05/06 08:11:57;;;;;;;4.23;2.77;;;15.40;98.00;;;;;;5008983;28;20532;-65
2022/05/06 08:14:24;;;;;;;3.63;2.53;;;15.30;98.00;;;;;;5007477;28;20644;-65
2022/05/06 08:16:51;;;;;;;2.60;2.23;;;15.20;98.00;;;;;;5007771;28;20979;-65
2022/05/06 08:19:19;;;;;;;1.80;1.73;;;15.00;98.00;;;;;;5008738;28;20555;-65
2022/05/06 08:21:47;;;;;;;3.47;2.50;;;14.80;98.00;;;;;;5007686;28;20465;-64
2022/05/06 08:24:15;;;;;;;4.17;2.57;;;14.60;98.00;;;;;;5007746;28;20463;-65
2022/05/06 08:26:43;;;;;;;3.40;2.57;;;14.50;98.00;;;;;;5008720;28;20546;-65
2022/05/06 08:29:13;;;;;;;2.90;2.27;;;14.50;98.00;;;;;;5012254;28;20503;-65
2022/05/06 08:31:41;;;;;;;3.23;2.30;;;14.50;98.00;;;;;;5012399;28;20468;-65
2022/05/06 08:34:12;;;;;;;2.33;2.17;;;14.40;98.00;;;;;;5011013;28;20456;-65
2022/05/06 08:36:41;;;;;;;4.57;2.60;;;14.30;98.00;;;;;;5012296;28;20459;-65
2022/05/06 08:39:10;;;;;;;3.00;1.93;;;14.30;98.00;;;;;;5012694;28;20460;-65
2022/05/06 08:41:37;;;;;;;2.13;1.90;;;14.30;98.00;;;;;;5012179;28;20469;-65
2022/05/06 08:52:26;;;;;;;3.27;2.47;;;14.50;98.00;;;;;;5012044;28;20490;-65
2022/05/06 08:54:54;;;;;;;2.10;1.77;;;14.60;98.00;;;;;;5010365;28;20575;-65
2022/05/06 08:57:21;;;;;;;1.80;1.53;;;14.80;98.00;;;;;;5011583;28;20461;-64
2022/05/06 08:59:53;;;;;;;1.80;1.70;;;15.00;98.00;;;;;;5011486;28;20461;-65
2022/05/06 09:02:21;;;;;;;1.50;1.47;;;15.10;98.00;;;;;;5011786;28;20547;-64
2022/05/06 09:04:48;;;;;;;1.60;1.53;;;15.20;98.00;;;;;;5010767;28;20551;-66
2022/05/06 09:07:21;;;;;;;2.30;1.93;;;15.30;98.00;;;;;;5011346;28;20508;-66
2022/05/06 09:10:14;;;;;;;3.43;2.47;;;15.40;98.00;;;;;;5010615;28;20461;-66
2022/05/06 09:12:44;;;;;;;1.97;1.70;;;15.50;98.00;;;;;;5011648;28;20466;-66
2022/05/06 09:18:00;;;;;;;3.50;2.20;;;15.70;98.00;;;;;;5010585;28;20923;-67
2022/05/06 09:20:28;;;;;;;3.00;1.83;;;16.00;98.00;;;;;;5011061;28;20459;-66
2022/05/06 09:22:56;;;;;;;6.00;1.80;;;15.90;98.00;;;;;;5011750;28;20469;-65
2022/05/06 09:25:39;;;;;;;4.13;2.20;;;16.00;98.00;;;;;;5011791;28;20995;-62
2022/05/06 09:28:07;;;;;;;3.47;2.60;;;16.20;98.00;;;;;;5011315;28;20505;-64
2022/05/06 09:30:35;;;;;;;1.93;1.60;;;16.40;98.00;;;;;;5010432;28;20873;-64
2022/05/06 09:33:04;;;;;;;2.17;2.00;;;16.40;98.00;;;;;;5009936;28;20520;-64
2022/05/06 09:35:32;;;;;;;2.07;1.67;;;16.50;98.00;;;;;;5011191;28;20879;-64
2022/05/06 09:38:03;;;;;;;3.20;1.93;;;16.60;98.00;;;;;;5010510;28;20463;-64
2022/05/06 09:40:31;;;;;;;2.93;2.03;;;16.70;98.00;;;;;;5010385;28;20557;-64
2022/05/06 09:42:59;;;;;;;3.10;2.57;;;16.80;98.00;;;;;;5006646;28;20477;-63
2022/05/06 09:45:32;;;;;;;3.10;2.10;;;16.90;98.00;;;;;;5010965;28;20863;-63
2022/05/06 09:48:00;;;;;;;3.00;2.10;;;17.10;98.00;;;;;;5011188;28;20502;-63
2022/05/06 09:50:38;;;;;;;6.07;3.10;;;17.10;98.00;;;;;;5002589;28;20470;-63
2022/05/06 09:53:07;;;;;;;2.97;2.13;;;17.00;98.00;;;;;;5011042;28;20518;-64
2022/05/06 09:55:36;;;;;;;2.43;2.00;;;17.10;98.00;;;;;;5010876;28;20469;-63
2022/05/06 09:58:05;;;;;;;2.90;1.83;;;17.20;98.00;;;;;;5010830;28;20863;-63
2022/05/06 10:00:32;;;;;;;2.03;1.73;;;17.20;98.00;;;;;;5010832;28;20448;-63
2022/05/06 10:03:01;;;;;;;3.30;2.30;;;17.20;98.00;;;;;;5010940;28;20954;-63
2022/05/06 10:05:29;;;;;;;2.67;2.00;;;17.30;98.00;;;;;;5009409;28;20802;-64
2022/05/06 10:08:00;;;;;;;2.33;1.90;;;17.10;98.00;;;;;;5010456;28;20546;-63
2022/05/06 10:10:30;;;;;;;2.90;2.03;;;16.90;98.00;;;;;;5009103;28;20521;-63
2022/05/06 10:13:02;;;;;;;3.20;1.83;;;16.80;98.00;;;;;;5009978;28;20460;-63
2022/05/06 10:15:31;;;;;;;3.03;1.90;;;16.80;98.00;;;;;;5009174;28;20524;-64
2022/05/06 10:18:02;;;;;;;2.67;1.97;;;16.80;98.00;;;;;;5009349;28;20889;-64
2022/05/06 10:20:50;;;;;;;4.93;2.33;;;17.10;98.00;;;;;;5009162;28;20483;-63
2022/05/06 10:23:19;;;;;;;2.50;1.93;;;17.40;98.00;;;;;;5004321;28;20880;-63
2022/05/06 10:25:52;;;;;;;4.40;2.03;;;17.60;98.00;;;;;;5010477;28;20825;-64
2022/05/06 10:34:31;;;;;;;3.00;2.33;;;17.70;98.00;;;;;;5010666;28;20580;-64
2022/05/06 10:37:02;;;;;;;2.33;1.73;;;17.60;98.00;;;;;;5009339;28;20837;-64
2022/05/06 10:39:35;;;;;;;3.13;2.23;;;17.60;98.00;;;;;;5010379;28;20498;-65
2022/05/06 10:42:04;;;;;;;1.80;1.53;;;17.60;98.00;;;;;;5002279;28;20462;-64
2022/05/06 10:44:39;;;;;;;1.70;1.60;;;17.70;98.00;;;;;;5010241;28;20749;-64
2022/05/06 10:47:40;;;;;;;1.87;1.53;;;17.70;98.00;;;;;;5010004;28;20487;-64
2022/05/06 10:50:20;;;;;;;1.93;1.73;;;17.90;98.00;;;;;;5004179;28;20466;-64
2022/05/06 10:52:49;;;;;;;2.50;1.87;;;18.00;98.00;;;;;;5009976;28;20815;-63
2022/05/06 10:55:22;;;;;;;1.67;1.43;;;18.00;98.00;;;;;;5010136;28;20452;-64
2022/05/06 10:57:57;;;;;;;3.93;2.20;;;18.00;98.00;;;;;;5009710;28;20464;-64
2022/05/06 11:00:27;;;;;;;3.50;2.40;;;18.00;98.00;;;;;;5008158;28;20455;-64
2022/05/06 11:02:57;;;;;;;1.90;1.60;;;18.10;98.00;;;;;;5009995;28;20447;-64
2022/05/06 11:05:25;;;;;;;1.90;1.80;;;18.30;98.00;;;;;;5009803;28;20494;-64
2022/05/06 11:07:56;;;;;;;1.90;1.80;;;18.30;98.00;;;;;;5009624;28;20519;-64
2022/05/06 11:10:26;;;;;;;2.30;1.70;;;18.40;98.00;;;;;;5009885;28;20558;-64
2022/05/06 11:12:57;;;;;;;5.03;1.77;;;18.40;98.00;;;;;;5010254;28;20558;-64
2022/05/06 11:15:26;;;;;;;3.53;1.93;;;18.60;98.00;;;;;;5009607;28;20503;-65
2022/05/06 11:17:56;;;;;;;2.63;1.90;;;18.70;98.00;;;;;;5008764;28;20461;-65
2022/05/06 11:20:27;;;;;;;1.80;1.70;;;18.70;98.00;;;;;;5009490;28;20460;-64
2022/05/06 11:22:59;;;;;;;2.03;1.90;;;18.90;98.00;;;;;;5008146;28;20509;-64
2022/05/06 11:25:33;;;;;;;3.50;2.10;;;19.20;98.00;;;;;;5009470;28;20459;-63
2022/05/06 11:28:02;;;;;;;2.23;1.73;;;19.40;98.00;;;;;;5009026;28;20503;-63
2022/05/06 11:30:30;;;;;;;3.23;1.93;;;19.60;98.00;;;;;;5009606;28;20466;-63
2022/05/06 11:33:00;;;;;;;2.20;1.90;;;19.60;97.60;;;;;;5009252;28;20483;-63
2022/05/06 11:35:32;;;;;;;2.13;1.83;;;19.60;95.30;;;;;;5009422;28;21007;-63
2022/05/06 11:38:06;;;;;;;2.03;1.67;;;19.50;95.00;;;;;;5009401;28;21190;-64
2022/05/06 11:40:36;;;;;;;4.07;2.20;;;19.40;96.80;;;;;;5009563;28;20463;-64
2022/05/06 11:43:06;;;;;;;1.70;1.67;;;19.40;97.00;;;;;;5009745;28;20551;-64
2022/05/06 11:48:21;;;;;;;3.77;2.20;;;19.10;96.00;;;;;;5011516;28;20481;-63
2022/05/06 11:50:54;;;;;;;2.80;2.00;;;19.20;97.80;;;;;;5011845;28;20888;-63
2022/05/06 11:53:25;;;;;;;2.00;1.70;;;19.40;96.00;;;;;;5011630;28;20464;-64
2022/05/06 11:55:56;;;;;;;2.80;2.00;;;19.50;97.10;;;;;;5011617;28;20946;-64
2022/05/06 11:58:25;;;;;;;2.50;1.60;;;19.50;96.00;;;;;;5011625;28;20966;-64
2022/05/06 12:00:54;;;;;;;3.43;2.57;;;19.60;95.00;;;;;;5012646;28;20466;-64
2022/05/06 12:03:21;;;;;;;1.83;1.43;;;19.60;94.90;;;;;;5015605;28;20547;-63
2022/05/06 12:06:15;;;;;;;2.73;2.20;;;19.70;94.20;;;;;;5015427;28;20510;-64
2022/05/06 12:08:43;;;;;;;2.93;2.00;;;19.60;94.40;;;;;;4991253;28;20494;-64
2022/05/06 12:11:12;;;;;;;2.60;1.73;;;19.60;94.80;;;;;;5015411;28;20459;-64
2022/05/06 12:13:41;;;;;;;2.17;1.70;;;19.60;96.10;;;;;;5015336;28;20451;-64
2022/05/06 12:16:13;;;;;;;2.00;1.73;;;19.50;95.40;;;;;;5015466;28;20649;-64
2022/05/06 12:18:53;;;;;;;1.90;1.63;;;19.50;95.00;;;;;;5015226;28;20950;-63
2022/05/06 12:21:25;;;;;;;1.97;1.77;;;19.60;94.10;;;;;;5015202;28;20522;-64
2022/05/06 12:23:58;;;;;;;4.20;1.93;;;19.60;94.70;;;;;;5015209;28;20455;-64
2022/05/06 12:26:37;;;;;;;2.60;1.80;;;19.70;94.90;;;;;;5014950;28;20966;-64
2022/05/06 12:29:19;;;;;;;2.03;1.70;;;19.70;93.80;;;;;;5015115;28;20483;-64
2022/05/06 12:31:48;;;;;;;2.10;1.87;;;19.60;95.20;;;;;;5013721;28;20981;-64
2022/05/06 12:34:15;;;;;;;2.93;1.97;;;19.50;94.70;;;;;;5014009;28;20455;-64
2022/05/06 12:36:42;;;;;;;2.90;2.13;;;19.40;92.90;;;;;;5014836;28;20470;-64
2022/05/06 12:39:20;;;;;;;3.27;1.93;;;19.30;94.90;;;;;;5014989;28;20904;-64
2022/05/06 12:41:49;;;;;;;3.87;2.13;;;19.40;96.50;;;;;;5014900;28;20463;-64
2022/05/06 12:44:19;;;;;;;2.33;2.00;;;19.30;95.00;;;;;;5014846;28;20459;-64
2022/05/06 12:46:47;;;;;;;3.10;2.17;;;19.30;95.10;;;;;;5015330;28;20471;-64
2022/05/06 12:52:00;;;;;;;2.80;2.20;;;19.20;94.40;;;;;;5014862;28;21052;-64
2022/05/06 12:54:27;;;;;;;2.80;1.70;;;19.20;96.30;;;;;;5013356;28;20793;-64
2022/05/06 12:56:56;;;;;;;3.90;2.07;;;19.30;95.50;;;;;;5014523;28;20467;-64
2022/05/06 12:59:23;;;;;;;3.70;2.20;;;19.40;96.10;;;;;;5014564;28;20860;-64
2022/05/06 13:01:51;;;;;;;2.13;1.70;;;19.30;94.90;;;;;;5014407;28;20494;-64
2022/05/06 13:04:18;;;;;;;3.03;1.97;;;19.40;94.60;;;;;;5014591;28;20546;-64
2022/05/06 13:06:45;;;;;;;3.10;2.00;;;19.40;95.70;;;;;;5014344;28;20486;-64
2022/05/06 13:09:12;;;;;;;2.73;2.10;;;19.50;95.30;;;;;;5014101;28;20498;-64
2022/05/06 13:11:40;;;;;;;1.93;1.60;;;19.70;94.30;;;;;;5014311;28;20467;-64
2022/05/06 13:14:08;;;;;;;2.37;1.77;;;19.90;95.00;;;;;;5013219;28;20509;-64
2022/05/06 13:16:36;;;;;;;1.90;1.60;;;19.90;92.90;;;;;;5014230;28;20993;-64
2022/05/06 13:19:04;;;;;;;2.17;1.87;;;19.90;91.00;;;;;;5014104;28;20467;-64
2022/05/06 13:21:31;;;;;;;2.00;1.70;;;19.80;93.40;;;;;;5014035;28;20463;-64
2022/05/06 13:23:59;;;;;;;2.10;1.87;;;19.70;92.10;;;;;;5014046;28;20552;-64
2022/05/06 13:26:30;;;;;;;3.17;2.20;;;19.50;93.60;;;;;;5013945;28;20527;-64
2022/05/06 13:28:57;;;;;;;2.23;1.80;;;19.70;94.40;;;;;;5013850;28;20483;-64
2022/05/06 13:31:26;;;;;;;3.80;1.83;;;19.80;93.40;;;;;;5013715;28;20503;-64
2022/05/06 13:33:53;;;;;;;1.83;1.80;;;20.00;92.70;;;;;;5013756;28;20471;-64
2022/05/06 13:36:20;;;;;;;1.97;1.90;;;19.90;93.10;;;;;;5013702;28;20845;-64
2022/05/06 13:38:47;;;;;;;2.30;2.03;;;20.00;94.10;;;;;;5014090;28;20482;-64
2022/05/06 13:41:16;;;;;;;2.37;2.00;;;20.10;93.30;;;;;;5014033;28;20945;-64
2022/05/06 13:43:43;;;;;;;3.83;2.00;;;19.90;93.00;;;;;;5013794;28;20474;-64